EDT,Max TemperatureF,Mean TemperatureF,Min TemperatureF,Max Dew PointF,MeanDew PointF,Min DewpointF,Max Humidity, Mean Humidity, Min Humidity, Max Sea Level PressureIn, Mean Sea Level PressureIn, Min Sea Level PressureIn, Max VisibilityMiles, Mean VisibilityMiles, Min VisibilityMiles, Max Wind SpeedMPH, Mean Wind SpeedMPH, Max Gust SpeedMPH,PrecipitationIn, CloudCover, Events, WindDirDegrees
2012-10-1,71,60,48,52,47,43,93,65,38,29.99,29.91,29.85,10,10,5,17,7,23,0.00,1,,252
2012-10-2,71,66,60,70,61,52,100,83,60,30.02,29.99,29.95,10,7,0,12,4,17,0.14,8,,110
2012-10-3,71,68,66,70,68,64,100,96,94,30.13,30.05,29.98,5,2,0,7,3,,0.00,7,,41
2012-10-4,75,70,66,70,68,64,100,92,83,30.15,30.11,30.04,10,5,0,8,1,,0.00,5,,151
2012-10-5,,,,,,,,,,,,,,,,,,,,,,
2012-10-6,,,,,,,,,,,,,,,,,,,,,,
2012-10-7,,,,,,,,,,,,,,,,,,,,,,
2012-10-8,,,,,,,,,,,,,,,,,,,,,,
2012-10-9,59,57,55,57,55,54,100,94,88,30.18,30.11,30.06,10,5,2,13,10,20,0.14,8,,42
2012-10-10,66,60,55,59,53,39,100,77,51,30.05,29.92,29.82,10,8,3,18,9,30,1.68,6,,296
2012-10-11,60,52,44,39,35,30,71,55,34,30.22,30.15,29.99,10,10,10,20,10,25,0.00,0,,267
2012-10-12,60,50,41,43,35,27,87,61,38,30.42,30.20,30.09,10,10,10,20,8,26,0.00,1,,289
2012-10-13,53,42,30,39,30,23,87,62,33,30.52,30.44,30.34,10,10,10,12,5,16,0.00,0,,259
2012-10-14,73,60,48,57,49,41,88,67,41,30.32,30.15,29.97,10,10,10,20,9,28,0.00,1,,215
2012-10-15,75,68,60,63,59,57,94,77,57,29.96,29.77,29.66,10,10,10,17,10,26,0.02,5,,223
2012-10-16,60,51,42,57,41,34,88,62,39,29.93,29.80,29.68,10,10,10,23,10,31,0.00,1,,301
2012-10-17,62,50,37,45,40,34,93,70,42,30.03,29.98,29.92,10,10,9,8,4,,0.00,0,,279
2012-10-18,66,54,42,63,50,37,94,78,56,30.04,30.00,29.92,10,10,5,15,6,21,0.02,4,,143
2012-10-19,68,65,62,64,63,59,100,92,83,29.93,29.78,29.67,10,9,4,15,10,25,0.18,7,,154
2012-10-20,71,61,51,63,51,41,100,72,38,29.86,29.74,29.67,10,8,0,16,7,21,0.00,1,,262
2012-10-21,66,56,46,43,40,37,81,59,35,30.05,29.97,29.86,10,10,10,15,9,24,0.00,0,,283
2012-10-22,68,56,44,43,41,39,81,59,37,30.13,30.08,30.04,10,10,10,17,8,23,0.00,0,,277
2012-10-23,66,56,46,55,48,43,94,73,52,30.14,30.09,30.07,10,10,4,8,3,,0.00,4,,123
2012-10-24,60,58,57,57,56,54,100,88,82,30.19,30.13,30.08,10,7,3,9,6,,0.00,8,,58
2012-10-25,60,58,55,55,55,54,94,85,77,30.27,30.24,30.19,10,10,10,9,5,,0.00,8,,77
2012-10-26,66,62,57,57,56,54,94,85,73,30.23,30.18,30.11,10,10,10,8,3,,0.00,8,,62
2012-10-27,64,62,59,57,53,48,88,74,67,30.11,29.99,29.89,10,10,10,14,7,20,0.00,4,,64
2012-10-28,59,57,55,54,49,43,94,74,55,29.89,29.76,29.59,10,9,2,25,15,37,0.04,6,,42
2012-10-29,62,56,51,63,50,43,100,84,67,29.59,29.17,28.31,10,6,1,39,24,56,1.13,8,,23
2012-10-30,,,,,,,,,,,,,,,,,,,,,,
2012-10-31,,,,,,,,,,,,,,,,,,,,,,